Geel, Belgium
Current Conditions -  °F | °C
As of 5:25 AM on Monday 22 Dec 2014 (Local Time) from EBDT Reporting Station
Overcast Overcast  
Wind Chill: 42°   Ceiling: 1400
Heat Index: 48°   Visibility: 6mi
Dew Point: 45°   Wind: 16mph
Humidity: 87%   Direction: 230°SW
Pressure: 30.15"   Gusts: 31mph
Location:  51.17°N, 4.99°E
Report Text: EBDT 220425Z AUTO 23014G27KT 9999 BKN014/// OVC019/// 09/07 Q1021 GRN
Loading
Personal Weather Stations






























Interactive Weather Map New forecast layout! Learn more

10-Day Weather Forecast

Advertisements
Track Severe Weather on mobile